Time;durP1;ratioP1;P1;durP2;ratioP2;P2;SDS_P1;SDS_P2;PMS_P1;PMS_P2;Temp;Humidity;BMP_temperature;BMP_pressure;BME280_temperature;BME280_humidity;BME280_pressure;Samples;Min_cycle;Max_cycle;Signal;HPM_P1;HPM_P2
2021/01/14 00:00:14;;;;;;;;;;;;;;;3.76;55.83;100389.91;4977455;28;19913;-79
2021/01/14 00:03:00;;;;;;;;;;;;;;;3.76;53.47;100383.75;5013010;28;19914;-78
2021/01/14 00:05:45;;;;;;;;;;;;;;;3.47;54.38;100375.56;4984198;28;19913;-79
2021/01/14 00:08:31;;;;;;;;;;;;;;;3.33;54.28;100380.75;5003461;28;19914;-79
2021/01/14 00:11:16;;;;;;;;;;;;;;;3.17;54.52;100381.88;5003047;28;19913;-79
2021/01/14 00:14:00;;;;;;;;;;;;;;;3.08;54.45;100367.41;5002874;28;19917;-79
2021/01/14 00:16:45;;;;;;;;;;;;;;;3.30;53.82;100370.53;5001127;28;20386;-79
2021/01/14 00:19:30;;;;;;;;;;;;;;;3.40;54.48;100359.72;4989790;28;19914;-79
2021/01/14 00:22:14;;;;;;;;;;;;;;;3.58;55.69;100365.56;5015526;28;19917;-78
2021/01/14 00:24:58;;;;;;;;;;;;;;;3.50;54.29;100353.53;4996681;28;19913;-79
2021/01/14 00:27:43;;;;;;;;;;;;;;;3.10;54.35;100343.75;5014778;28;19917;-79
2021/01/14 00:30:29;;;;;;;;;;;;;;;2.88;54.91;100330.69;4997888;28;19914;-79
2021/01/14 00:33:13;;;;;;;;;;;;;;;3.01;55.33;100313.19;5017148;28;19913;-80
2021/01/14 00:35:58;;;;;;;;;;;;;;;2.95;56.33;100314.25;5002143;28;19918;-79
2021/01/14 00:38:43;;;;;;;;;;;;;;;3.18;55.73;100329.78;5011144;28;19921;-79
2021/01/14 00:41:27;;;;;;;;;;;;;;;3.29;55.30;100330.53;5007988;28;19914;-79
2021/01/14 00:44:12;;;;;;;;;;;;;;;3.14;55.50;100334.09;4997190;28;19914;-79
2021/01/14 00:46:57;;;;;;;;;;;;;;;2.90;55.73;100335.75;4974873;28;20396;-79
2021/01/14 00:49:42;;;;;;;;;;;;;;;3.10;54.75;100329.53;5000221;28;19913;-79
2021/01/14 00:52:26;;;;;;;;;;;;;;;3.01;55.27;100329.28;5004570;28;19914;-79
2021/01/14 00:55:13;;;;;;;;;;;;;;;3.00;55.20;100327.69;5011308;28;19921;-80
2021/01/14 00:57:57;;;;;;;;;;;;;;;2.81;55.16;100332.84;5004976;28;20291;-79
2021/01/14 01:00:42;;;;;;;;;;;;;;;3.15;54.45;100319.56;4995959;28;19914;-79
2021/01/14 01:03:26;;;;;;;;;;;;;;;3.05;54.87;100330.34;5005100;28;20410;-79
2021/01/14 01:06:11;;;;;;;;;;;;;;;3.03;54.96;100319.09;5014171;28;19914;-79
2021/01/14 01:08:55;;;;;;;;;;;;;;;2.95;54.74;100316.94;5008400;28;19914;-79
2021/01/14 01:11:40;;;;;;;;;;;;;;;2.80;55.15;100306.28;5004548;28;20389;-79
2021/01/14 01:14:24;;;;;;;;;;;;;;;2.88;57.10;100297.66;5015767;28;19917;-79
2021/01/14 01:17:08;;;;;;;;;;;;;;;3.18;54.71;100300.22;5049885;22;20391;-76
2021/01/14 01:19:53;;;;;;;;;;;;;;;3.04;55.37;100282.28;5030621;28;19921;-75
2021/01/14 01:22:37;;;;;;;;;;;;;;;2.95;55.70;100282.03;5028058;28;19913;-77
2021/01/14 01:25:21;;;;;;;;;;;;;;;2.97;59.21;100279.91;5029688;28;19912;-77
2021/01/14 01:28:06;;;;;;;;;;;;;;;3.08;56.83;100267.22;5029347;28;20295;-79
2021/01/14 01:30:51;;;;;;;;;;;;;;;3.20;56.33;100246.22;5030093;28;19913;-76
2021/01/14 01:33:35;;;;;;;;;;;;;;;3.13;56.63;100240.34;5035418;28;19913;-76
2021/01/14 01:36:20;;;;;;;;;;;;;;;3.21;56.26;100251.28;5032112;28;19913;-77
2021/01/14 01:39:05;;;;;;;;;;;;;;;3.06;56.51;100243.31;5031976;28;19913;-76
2021/01/14 01:41:49;;;;;;;;;;;;;;;2.76;56.47;100246.16;5030973;28;20395;-76
2021/01/14 01:44:33;;;;;;;;;;;;;;;2.54;57.43;100238.44;5030994;28;19912;-76
2021/01/14 01:47:18;;;;;;;;;;;;;;;2.67;57.87;100239.75;5018186;28;19921;-77
2021/01/14 01:50:04;;;;;;;;;;;;;;;2.80;57.99;100247.22;5032693;28;19913;-78
2021/01/14 01:52:49;;;;;;;;;;;;;;;3.05;55.88;100243.63;5045473;28;19913;-77
2021/01/14 01:55:36;;;;;;;;;;;;;;;2.81;57.84;100238.06;5058143;28;19912;-77
2021/01/14 01:58:24;;;;;;;;;;;;;;;3.02;57.32;100228.84;5030418;28;19913;-77
2021/01/14 02:01:08;;;;;;;;;;;;;;;3.11;58.47;100216.44;5029655;28;19913;-76
2021/01/14 02:04:20;;;;;;;;;;;;;;;3.11;56.80;100199.50;5020000;28;19912;-81
2021/01/14 02:07:08;;;;;;;;;;;;;;;3.14;59.51;100196.28;5041141;28;19901;-82
2021/01/14 02:09:54;;;;;;;;;;;;;;;3.23;60.07;100189.25;5030562;28;20299;-81
2021/01/14 02:12:45;;;;;;;;;;;;;;;3.29;59.84;100183.56;5036190;28;19913;-82
2021/01/14 02:15:31;;;;;;;;;;;;;;;3.51;59.52;100176.91;5024685;28;19929;-80
2021/01/14 02:18:20;;;;;;;;;;;;;;;3.58;59.33;100161.28;5034554;28;19912;-81
2021/01/14 02:21:06;;;;;;;;;;;;;;;3.52;59.02;100160.53;5040283;28;19901;-79
2021/01/14 02:24:03;;;;;;;;;;;;;;;3.55;59.35;100157.28;5065743;28;19913;-80
2021/01/14 02:26:48;;;;;;;;;;;;;;;3.42;58.93;100149.84;5039702;28;19921;-79
2021/01/14 02:29:35;;;;;;;;;;;;;;;3.80;55.25;100142.78;5035324;28;19913;-79
2021/01/14 02:32:21;;;;;;;;;;;;;;;3.77;55.43;100136.09;5036397;28;20546;-78
2021/01/14 02:35:09;;;;;;;;;;;;;;;3.24;57.10;100129.88;5031384;28;19913;-77
2021/01/14 02:37:55;;;;;;;;;;;;;;;3.07;57.53;100117.91;5029549;28;19913;-79
2021/01/14 02:40:40;;;;;;;;;;;;;;;3.09;57.13;100121.91;5034728;28;19913;-78
2021/01/14 02:43:25;;;;;;;;;;;;;;;3.30;54.95;100127.94;5040462;28;19913;-77
2021/01/14 02:46:10;;;;;;;;;;;;;;;3.25;54.49;100139.50;5040469;28;19921;-79
2021/01/14 02:49:08;;;;;;;;;;;;;;;3.09;54.67;100129.19;5013607;28;19917;-77
2021/01/14 02:51:56;;;;;;;;;;;;;;;3.09;54.84;100132.66;5033926;28;20363;-77
2021/01/14 02:54:40;;;;;;;;;;;;;;;3.23;54.57;100141.69;5039698;28;19913;-77
2021/01/14 02:57:26;;;;;;;;;;;;;;;3.11;54.94;100143.91;5038026;28;19897;-79
2021/01/14 03:00:12;;;;;;;;;;;;;;;3.14;55.52;100151.44;5031593;28;19913;-78
2021/01/14 03:02:57;;;;;;;;;;;;;;;3.42;55.03;100139.09;5047643;28;19917;-77
2021/01/14 03:05:42;;;;;;;;;;;;;;;3.20;55.63;100136.84;5037158;28;19913;-78
2021/01/14 03:08:27;;;;;;;;;;;;;;;3.05;55.70;100142.34;5034885;28;19917;-79
2021/01/14 03:11:12;;;;;;;;;;;;;;;3.14;54.49;100142.56;5038580;28;19913;-78
2021/01/14 03:13:57;;;;;;;;;;;;;;;2.95;55.24;100139.72;5052222;28;19912;-80
2021/01/14 03:16:41;;;;;;;;;;;;;;;2.85;58.36;100127.16;5034769;28;19913;-78
2021/01/14 03:19:26;;;;;;;;;;;;;;;2.79;59.50;100116.75;5055963;28;19912;-79
2021/01/14 03:22:10;;;;;;;;;;;;;;;2.76;59.42;100106.56;5039155;28;19913;-80
2021/01/14 03:24:56;;;;;;;;;;;;;;;2.71;59.88;100109.28;5033962;28;19913;-79
2021/01/14 03:27:41;;;;;;;;;;;;;;;2.58;60.67;100095.41;5036373;28;19921;-81
2021/01/14 03:30:26;;;;;;;;;;;;;;;2.53;60.34;100100.81;5034041;28;19913;-79
2021/01/14 03:33:10;;;;;;;;;;;;;;;2.69;60.81;100096.16;5039007;28;19921;-78
2021/01/14 03:35:55;;;;;;;;;;;;;;;2.83;61.19;100077.53;5062626;28;19913;-78
2021/01/14 03:38:40;;;;;;;;;;;;;;;2.96;60.85;100071.50;5014751;28;19913;-78
2021/01/14 03:41:25;;;;;;;;;;;;;;;3.00;60.68;100081.41;5047491;28;19913;-78
2021/01/14 03:44:09;;;;;;;;;;;;;;;2.91;61.16;100068.88;5021414;28;19913;-77
2021/01/14 03:46:55;;;;;;;;;;;;;;;2.87;61.61;100075.88;5052571;28;19916;-78
2021/01/14 03:49:39;;;;;;;;;;;;;;;3.12;61.13;100066.81;5037465;28;19913;-77
2021/01/14 03:52:24;;;;;;;;;;;;;;;3.13;60.82;100065.75;5036451;28;19917;-77
2021/01/14 03:55:08;;;;;;;;;;;;;;;3.17;60.21;100064.91;5026224;28;19916;-77
2021/01/14 03:57:53;;;;;;;;;;;;;;;3.59;56.64;100052.69;5054404;28;19913;-78
2021/01/14 04:00:37;;;;;;;;;;;;;;;3.63;53.83;100061.78;5036082;28;19917;-77
2021/01/14 04:03:27;;;;;;;;;;;;;;;3.23;54.01;100063.78;5042751;28;19912;-76
2021/01/14 04:06:14;;;;;;;;;;;;;;;2.92;56.66;100059.75;5040071;28;19913;-77
2021/01/14 04:09:02;;;;;;;;;;;;;;;2.93;56.46;100055.97;5032387;28;20342;-78
2021/01/14 04:11:47;;;;;;;;;;;;;;;3.11;56.15;100047.22;5039006;28;19913;-76
2021/01/14 04:14:31;;;;;;;;;;;;;;;3.23;56.09;100039.59;5035843;28;20387;-77
2021/01/14 04:17:16;;;;;;;;;;;;;;;3.10;57.05;100034.09;5032931;28;19913;-77
2021/01/14 04:20:00;;;;;;;;;;;;;;;3.06;58.33;100015.03;5033884;28;19913;-77
2021/01/14 04:22:49;;;;;;;;;;;;;;;3.16;59.57;100019.50;5032938;28;19913;-78
2021/01/14 04:25:33;;;;;;;;;;;;;;;3.38;60.83;100003.72;5036930;28;19913;-77
2021/01/14 04:28:18;;;;;;;;;;;;;;;3.39;60.66;99992.69;5036375;28;19917;-76
2021/01/14 04:31:02;;;;;;;;;;;;;;;3.39;61.46;99981.13;5036184;28;19921;-78
2021/01/14 04:33:47;;;;;;;;;;;;;;;3.55;62.08;99995.22;5044091;28;19917;-77
2021/01/14 04:36:32;;;;;;;;;;;;;;;3.56;62.31;99983.34;5021825;28;20399;-78
2021/01/14 04:39:16;;;;;;;;;;;;;;;3.59;61.60;99986.28;5019982;28;19913;-77
2021/01/14 04:42:02;;;;;;;;;;;;;;;3.48;58.71;99992.06;5048252;28;19913;-75
2021/01/14 04:44:48;;;;;;;;;;;;;;;3.31;59.85;99990.59;5035691;28;19917;-77
2021/01/14 04:47:37;;;;;;;;;;;;;;;3.15;61.26;99989.16;5034443;28;20399;-77
2021/01/14 04:50:26;;;;;;;;;;;;;;;3.01;61.60;99972.91;5032952;28;19913;-77
2021/01/14 04:53:13;;;;;;;;;;;;;;;3.09;58.78;99971.50;5035131;28;19913;-78
2021/01/14 04:55:59;;;;;;;;;;;;;;;3.07;56.36;99964.81;5047166;28;19916;-77
2021/01/14 04:58:48;;;;;;;;;;;;;;;3.00;59.04;99967.81;5031717;28;19913;-77
2021/01/14 05:01:33;;;;;;;;;;;;;;;3.05;57.98;99961.63;5033532;28;19913;-80
2021/01/14 05:04:20;;;;;;;;;;;;;;;3.11;56.72;99957.78;5019365;28;19921;-80
2021/01/14 05:07:09;;;;;;;;;;;;;;;3.05;57.41;99938.22;5030501;28;19920;-82
2021/01/14 05:09:53;;;;;;;;;;;;;;;2.87;59.56;99942.44;5061116;28;19913;-80
2021/01/14 05:12:40;;;;;;;;;;;;;;;2.97;60.00;99933.50;5032328;28;19917;-78
2021/01/14 05:15:26;;;;;;;;;;;;;;;3.14;60.97;99941.13;5042167;28;19913;-80
2021/01/14 05:18:10;;;;;;;;;;;;;;;2.89;58.04;99940.28;5047917;28;19913;-81
2021/01/14 05:20:59;;;;;;;;;;;;;;;2.85;58.17;99928.50;5033201;28;21267;-82
2021/01/14 05:23:44;;;;;;;;;;;;;;;2.49;57.64;99927.22;5029890;28;19912;-76
2021/01/14 05:26:29;;;;;;;;;;;;;;;2.63;58.41;99940.81;5049634;28;19913;-78
2021/01/14 05:29:17;;;;;;;;;;;;;;;2.62;59.32;99940.00;5038240;28;19916;-82
2021/01/14 05:32:02;;;;;;;;;;;;;;;2.58;57.92;99945.13;5039316;28;19913;-82
2021/01/14 05:34:47;;;;;;;;;;;;;;;2.33;57.65;99942.66;5037121;28;20363;-80
2021/01/14 05:37:36;;;;;;;;;;;;;;;2.50;57.38;99935.00;5048061;28;19916;-78
2021/01/14 05:40:28;;;;;;;;;;;;;;;2.67;57.26;99931.09;5031671;28;19912;-76
2021/01/14 05:43:12;;;;;;;;;;;;;;;2.60;58.31;99915.31;5052348;28;19928;-75
2021/01/14 05:46:13;;;;;;;;;;;;;;;2.44;58.09;99924.56;5070270;28;19913;-79
2021/01/14 05:49:02;;;;;;;;;;;;;;;2.31;58.48;99922.53;5045940;28;19992;-82
2021/01/14 05:51:53;;;;;;;;;;;;;;;2.31;60.97;99919.84;5051745;28;19917;-80
2021/01/14 05:54:39;;;;;;;;;;;;;;;2.53;57.98;99914.84;5031822;28;19913;-78
2021/01/14 05:57:27;;;;;;;;;;;;;;;2.43;57.36;99905.00;5030845;28;20567;-79
2021/01/14 06:00:14;;;;;;;;;;;;;;;2.30;57.89;99902.16;5032842;28;19913;-76
2021/01/14 06:02:58;;;;;;;;;;;;;;;2.52;57.10;99908.69;5031025;28;19921;-78
2021/01/14 06:05:42;;;;;;;;;;;;;;;2.59;56.66;99911.81;5027580;28;19913;-78
2021/01/14 06:08:27;;;;;;;;;;;;;;;2.23;57.09;99902.50;5029037;28;19917;-77
2021/01/14 06:11:20;;;;;;;;;;;;;;;2.26;56.04;99911.84;5027512;28;20291;-77
2021/01/14 06:14:04;;;;;;;;;;;;;;;2.28;56.33;99894.41;5030417;28;19913;-76
2021/01/14 06:16:49;;;;;;;;;;;;;;;2.39;56.40;99890.53;5031763;28;19916;-77
2021/01/14 06:19:34;;;;;;;;;;;;;;;2.25;56.70;99903.00;5029680;28;20387;-78
2021/01/14 06:22:19;;;;;;;;;;;;;;;2.21;56.69;99907.31;5029568;28;19913;-78
2021/01/14 06:25:04;;;;;;;;;;;;;;;2.22;57.19;99919.66;5030809;28;19913;-79
2021/01/14 06:27:56;;;;;;;;;;;;;;;2.14;56.76;99931.78;5036281;28;19917;-78
2021/01/14 06:31:10;;;;;;;;;;;;;;;2.05;57.53;99949.53;5025350;28;20367;-77
2021/01/14 06:33:55;;;;;;;;;;;;;;;2.34;58.47;99930.81;5031420;28;19913;-79
2021/01/14 06:36:41;;;;;;;;;;;;;;;2.22;57.78;99930.38;5038489;28;19921;-77
2021/01/14 06:39:35;;;;;;;;;;;;;;;2.31;56.86;99934.06;5057595;28;19917;-76
2021/01/14 06:42:30;;;;;;;;;;;;;;;2.19;56.33;99949.69;5037412;28;19912;-78
2021/01/14 06:45:17;;;;;;;;;;;;;;;2.03;56.55;99953.59;5033011;28;19913;-77
2021/01/14 06:48:03;;;;;;;;;;;;;;;1.86;56.93;99961.97;5034476;28;19917;-78
2021/01/14 06:50:49;;;;;;;;;;;;;;;2.22;57.22;99965.25;5036404;28;19912;-79
2021/01/14 06:53:36;;;;;;;;;;;;;;;2.44;59.45;99976.34;5034442;28;19913;-77
2021/01/14 06:56:22;;;;;;;;;;;;;;;2.43;59.19;99966.72;5035353;28;19913;-78
2021/01/14 06:59:07;;;;;;;;;;;;;;;2.42;59.94;99964.31;5054124;28;19913;-79
2021/01/14 07:02:06;;;;;;;;;;;;;;;2.44;57.03;99948.72;5031195;28;19914;-79
2021/01/14 07:05:11;;;;;;;;;;;;;;;2.31;56.09;99947.47;5019929;28;20299;-76
2021/01/14 07:08:02;;;;;;;;;;;;;;;2.25;57.17;99956.63;5048278;28;19917;-75
2021/01/14 07:10:59;;;;;;;;;;;;;;;2.18;55.54;99971.47;5034000;28;19913;-76
2021/01/14 07:13:45;;;;;;;;;;;;;;;2.17;55.53;99992.09;5034318;28;19913;-76
2021/01/14 07:16:32;;;;;;;;;;;;;;;2.32;57.06;99994.69;5067530;22;19913;31
2021/01/14 07:19:17;;;;;;;;;;;;;;;2.20;56.28;99990.72;5048446;28;19928;-81
2021/01/14 07:22:02;;;;;;;;;;;;;;;2.16;56.16;99974.41;5038454;28;19917;-82
2021/01/14 07:24:48;;;;;;;;;;;;;;;2.04;58.73;99963.22;5030595;28;19912;-82
2021/01/14 07:27:34;;;;;;;;;;;;;;;1.58;61.43;99968.00;5041160;28;19917;-82
2021/01/14 07:30:19;;;;;;;;;;;;;;;1.58;58.42;99968.00;5036494;28;19913;-82
2021/01/14 07:33:05;;;;;;;;;;;;;;;1.09;59.75;99962.53;5036694;28;19913;-81
2021/01/14 07:35:50;;;;;;;;;;;;;;;1.22;59.96;99970.78;5023121;28;19913;-81
2021/01/14 07:38:45;;;;;;;;;;;;;;;1.28;60.26;99979.59;5038102;28;19999;-82
2021/01/14 07:41:49;;;;;;;;;;;;;;;1.47;58.63;99982.53;5043882;28;19913;-82
2021/01/14 07:44:34;;;;;;;;;;;;;;;1.22;59.81;100002.09;5029901;28;19913;-82
2021/01/14 07:47:22;;;;;;;;;;;;;;;1.11;62.12;99982.63;5041158;28;19913;-82
2021/01/14 07:50:23;;;;;;;;;;;;;;;0.64;61.61;99979.44;5029372;28;19913;-82
2021/01/14 07:53:13;;;;;;;;;;;;;;;0.75;60.92;99976.50;5027713;28;19913;-83
2021/01/14 07:56:18;;;;;;;;;;;;;;;0.73;61.28;99973.28;5036488;28;19913;-82
2021/01/14 07:59:03;;;;;;;;;;;;;;;0.79;61.88;99969.53;5036979;28;19913;-82
2021/01/14 08:02:00;;;;;;;;;;;;;;;0.76;62.07;99967.38;5043140;28;19913;-82
2021/01/14 08:04:52;;;;;;;;;;;;;;;0.78;62.78;99977.81;5036651;28;19913;-82
2021/01/14 08:07:38;;;;;;;;;;;;;;;0.91;62.41;99981.84;5039843;28;19917;-82
2021/01/14 08:10:22;;;;;;;;;;;;;;;1.18;62.02;99984.97;5037319;28;19913;-82
2021/01/14 08:13:07;;;;;;;;;;;;;;;1.16;63.91;100000.53;5031036;28;19924;-81
2021/01/14 08:15:52;;;;;;;;;;;;;;;1.24;62.82;99990.06;5027795;28;19913;-82
2021/01/14 08:18:37;;;;;;;;;;;;;;;1.21;62.60;99979.91;5036588;28;19913;-82
2021/01/14 08:21:28;;;;;;;;;;;;;;;1.49;61.74;99994.56;5037022;28;19916;-82
2021/01/14 08:24:32;;;;;;;;;;;;;;;1.71;61.04;99997.69;5026753;28;19913;-81
2021/01/14 08:27:20;;;;;;;;;;;;;;;1.95;62.00;99999.72;5023379;28;19913;-81
2021/01/14 08:30:08;;;;;;;;;;;;;;;1.73;61.68;100025.00;5022297;28;20302;-81
2021/01/14 08:32:59;;;;;;;;;;;;;;;1.78;61.38;100031.44;5037026;28;20375;-82
2021/01/14 08:35:47;;;;;;;;;;;;;;;1.70;61.99;100020.19;5048108;28;19913;-82
2021/01/14 08:38:32;;;;;;;;;;;;;;;2.10;61.66;100021.09;5049933;28;19913;-82
2021/01/14 08:41:27;;;;;;;;;;;;;;;2.21;61.30;100028.00;5053064;28;20323;-82
2021/01/14 08:44:13;;;;;;;;;;;;;;;2.21;60.67;100036.06;5036415;28;19913;-83
2021/01/14 08:46:57;;;;;;;;;;;;;;;2.10;60.79;100039.88;5035062;28;19912;-77
2021/01/14 08:49:43;;;;;;;;;;;;;;;2.05;61.14;100026.47;5036305;28;19917;-79
2021/01/14 08:52:28;;;;;;;;;;;;;;;2.04;60.64;100035.59;5034913;28;19913;-77
2021/01/14 08:55:14;;;;;;;;;;;;;;;2.17;60.64;100037.69;5033479;28;19916;-77
2021/01/14 08:58:00;;;;;;;;;;;;;;;2.02;61.58;100033.22;5032467;28;19913;-77
2021/01/14 09:00:47;;;;;;;;;;;;;;;2.15;63.00;100032.59;5030305;28;19913;-78
2021/01/14 09:03:32;;;;;;;;;;;;;;;2.19;62.21;100042.75;5032495;28;20399;-78
2021/01/14 09:06:28;;;;;;;;;;;;;;;2.24;62.45;100046.22;5033082;28;19913;-77
2021/01/14 09:09:16;;;;;;;;;;;;;;;2.38;62.70;100049.13;5026759;28;19917;-77
2021/01/14 09:12:00;;;;;;;;;;;;;;;2.36;62.64;100051.25;5050698;28;19913;-77
2021/01/14 09:14:45;;;;;;;;;;;;;;;2.46;62.00;100052.00;5032976;28;19913;-77
2021/01/14 09:17:34;;;;;;;;;;;;;;;2.49;60.46;100062.16;5019241;28;19913;-78
2021/01/14 09:20:18;;;;;;;;;;;;;;;2.50;61.45;100071.84;5050926;28;19913;-77
2021/01/14 09:23:22;;;;;;;;;;;;;;;2.56;62.49;100062.69;5001570;28;20302;-78
2021/01/14 09:26:13;;;;;;;;;;;;;;;2.65;61.90;100073.63;5039847;28;20368;-77
2021/01/14 09:28:58;;;;;;;;;;;;;;;2.64;61.63;100079.28;5029872;28;19917;-77
2021/01/14 09:31:43;;;;;;;;;;;;;;;2.62;61.92;100073.38;5019733;28;19910;-76
2021/01/14 09:34:28;;;;;;;;;;;;;;;2.74;61.55;100089.94;5019486;28;19913;-77
2021/01/14 09:37:17;;;;;;;;;;;;;;;2.92;60.87;100079.34;5011701;28;19913;-76
2021/01/14 09:40:08;;;;;;;;;;;;;;;3.12;59.90;100091.81;5047819;28;19913;-77
2021/01/14 09:42:57;;;;;;;;;;;;;;;3.25;59.17;100099.19;5017136;28;19928;-77
2021/01/14 09:45:43;;;;;;;;;;;;;;;3.22;59.76;100104.34;5035154;28;19928;-77
2021/01/14 09:48:30;;;;;;;;;;;;;;;3.14;59.85;100103.09;5047904;28;20384;-77
2021/01/14 09:51:16;;;;;;;;;;;;;;;3.40;60.21;100109.81;5030489;28;19913;-77
2021/01/14 09:54:02;;;;;;;;;;;;;;;3.31;60.09;100103.47;5034694;28;19921;-77
2021/01/14 09:56:49;;;;;;;;;;;;;;;3.49;59.51;100118.09;5051781;28;19913;-76
2021/01/14 09:59:33;;;;;;;;;;;;;;;3.93;60.00;100109.03;5021306;28;20427;-76
2021/01/14 10:02:26;;;;;;;;;;;;;;;3.96;59.92;100117.34;5015096;28;19913;-77
2021/01/14 10:05:15;;;;;;;;;;;;;;;3.80;59.39;100123.97;5020136;28;19913;-77
2021/01/14 10:08:02;;;;;;;;;;;;;;;3.71;60.06;100118.41;5018964;28;19917;-77
2021/01/14 10:10:47;;;;;;;;;;;;;;;4.06;60.01;100119.94;5015063;28;19913;-78
2021/01/14 10:13:32;;;;;;;;;;;;;;;3.99;58.76;100134.78;5029570;28;19913;-77
2021/01/14 10:16:21;;;;;;;;;;;;;;;3.96;57.99;100135.38;5017044;28;19913;-77
2021/01/14 10:19:15;;;;;;;;;;;;;;;4.01;57.81;100144.19;5031614;28;19935;-78
2021/01/14 10:22:04;;;;;;;;;;;;;;;4.10;58.21;100136.28;5037105;28;19913;-80
2021/01/14 10:24:48;;;;;;;;;;;;;;;4.29;57.24;100129.88;5040059;28;19917;-80
2021/01/14 10:27:33;;;;;;;;;;;;;;;3.96;57.77;100111.16;5029220;28;19913;-80
2021/01/14 10:30:19;;;;;;;;;;;;;;;4.29;58.23;100108.34;5040127;28;20307;-80
2021/01/14 10:33:04;;;;;;;;;;;;;;;4.32;58.39;100110.44;5025030;28;19929;-80
2021/01/14 10:35:53;;;;;;;;;;;;;;;4.53;56.93;100112.88;5043211;28;19913;-80
2021/01/14 10:38:49;;;;;;;;;;;;;;;4.55;58.39;100118.78;5026218;28;19913;-80
2021/01/14 10:41:33;;;;;;;;;;;;;;;4.48;57.48;100124.50;5043816;28;19913;-80
2021/01/14 10:44:18;;;;;;;;;;;;;;;4.44;56.98;100128.06;5042250;28;19913;-80
2021/01/14 10:47:13;;;;;;;;;;;;;;;4.58;57.13;100115.50;5025370;28;19913;-80
2021/01/14 10:49:58;;;;;;;;;;;;;;;4.63;58.92;100121.59;5057537;28;19916;-79
2021/01/14 10:53:04;;;;;;;;;;;;;;;4.70;57.00;100123.94;5042340;28;19913;-79
2021/01/14 10:55:59;;;;;;;;;;;;;;;4.80;57.24;100123.81;5039243;28;19913;-79
2021/01/14 10:58:43;;;;;;;;;;;;;;;4.91;57.16;100122.56;5038695;28;19913;-79
2021/01/14 11:01:28;;;;;;;;;;;;;;;5.03;57.00;100122.91;5037491;28;19912;-79
2021/01/14 11:04:13;;;;;;;;;;;;;;;5.11;56.79;100124.97;5037638;28;19913;-79
2021/01/14 11:06:58;;;;;;;;;;;;;;;5.23;56.36;100115.63;5041812;28;19913;-79
2021/01/14 11:09:52;;;;;;;;;;;;;;;5.18;56.51;100119.22;5040524;28;20287;-79
2021/01/14 11:12:55;;;;;;;;;;;;;;;5.24;56.96;100109.13;5023656;28;19916;-79
2021/01/14 11:15:40;;;;;;;;;;;;;;;5.36;56.71;100104.06;5041168;28;19913;-80
2021/01/14 11:18:24;;;;;;;;;;;;;;;5.41;56.57;100091.31;5033894;28;19918;-81
2021/01/14 11:21:10;;;;;;;;;;;;;;;5.47;56.85;100084.75;5034014;28;20304;-79
2021/01/14 11:23:58;;;;;;;;;;;;;;;5.59;56.74;100092.34;5026384;28;19913;-79
2021/01/14 11:26:42;;;;;;;;;;;;;;;5.70;56.28;100087.56;5018283;28;19913;-79
2021/01/14 11:29:27;;;;;;;;;;;;;;;5.78;56.80;100090.38;5037953;28;20291;-79
2021/01/14 11:32:11;;;;;;;;;;;;;;;5.81;56.64;100099.75;5036728;28;20380;-79
2021/01/14 11:34:56;;;;;;;;;;;;;;;5.84;56.36;100091.09;5037298;28;19913;-80
2021/01/14 11:37:41;;;;;;;;;;;;;;;5.86;57.03;100091.56;5036838;28;19916;-80
2021/01/14 11:40:26;;;;;;;;;;;;;;;5.91;57.04;100089.59;5036609;28;19913;-79
2021/01/14 11:43:10;;;;;;;;;;;;;;;6.03;57.17;100085.63;5020825;28;19913;-79
2021/01/14 11:45:55;;;;;;;;;;;;;;;6.17;55.95;100091.81;5009840;28;19917;-79
2021/01/14 11:48:39;;;;;;;;;;;;;;;6.26;56.42;100085.38;5037502;28;19917;-79
2021/01/14 11:51:23;;;;;;;;;;;;;;;6.29;56.19;100079.41;5023036;28;19917;-79
2021/01/14 11:54:08;;;;;;;;;;;;;;;6.26;56.42;100090.00;5026911;28;19921;-80
2021/01/14 11:56:52;;;;;;;;;;;;;;;6.34;56.63;100094.69;5023161;28;19913;-79
2021/01/14 11:59:37;;;;;;;;;;;;;;;6.48;56.33;100092.78;5040049;28;19913;-79
2021/01/14 12:02:21;;;;;;;;;;;;;;;6.50;56.04;100097.88;5036203;28;19917;-80
2021/01/14 12:05:06;;;;;;;;;;;;;;;6.52;56.61;100099.16;5026402;28;20298;-80
2021/01/14 12:07:51;;;;;;;;;;;;;;;6.61;55.94;100108.13;5040330;28;19912;-81
2021/01/14 12:10:35;;;;;;;;;;;;;;;6.65;56.33;100101.06;5037680;28;19921;-80
2021/01/14 12:13:20;;;;;;;;;;;;;;;6.72;56.16;100093.31;5042156;28;19921;-80
2021/01/14 12:16:06;;;;;;;;;;;;;;;6.82;57.44;100089.56;5040095;28;19913;-80
2021/01/14 12:18:50;;;;;;;;;;;;;;;6.90;55.97;100079.94;5037194;28;19913;-80
2021/01/14 12:21:35;;;;;;;;;;;;;;;6.95;55.53;100085.25;5028033;28;19913;-80
2021/01/14 12:24:19;;;;;;;;;;;;;;;7.10;55.55;100087.56;5055270;28;19913;-80
2021/01/14 12:27:04;;;;;;;;;;;;;;;7.11;55.18;100089.19;5038635;28;19913;-79
2021/01/14 12:29:48;;;;;;;;;;;;;;;7.13;55.65;100086.94;5056542;28;19917;-80
2021/01/14 12:32:33;;;;;;;;;;;;;;;7.14;55.63;100088.56;5037197;28;19913;-80
2021/01/14 12:35:17;;;;;;;;;;;;;;;7.21;55.24;100088.94;5036838;28;19913;-81
2021/01/14 12:38:02;;;;;;;;;;;;;;;7.30;55.20;100092.50;5039281;28;19917;-80
2021/01/14 12:40:46;;;;;;;;;;;;;;;7.39;54.88;100087.91;5037301;28;19913;-79
2021/01/14 12:43:30;;;;;;;;;;;;;;;7.43;54.76;100093.50;5025914;28;19913;-80
2021/01/14 12:46:15;;;;;;;;;;;;;;;7.35;54.98;100097.78;5036387;28;19913;-79
2021/01/14 12:48:59;;;;;;;;;;;;;;;7.44;54.61;100095.09;5038162;28;19917;-80
2021/01/14 12:51:44;;;;;;;;;;;;;;;7.50;55.00;100105.50;5038818;28;19913;-80
2021/01/14 12:54:29;;;;;;;;;;;;;;;7.60;54.55;100101.72;5037063;28;19913;-80
2021/01/14 12:57:13;;;;;;;;;;;;;;;7.62;54.59;100100.28;5037565;28;19912;-80
2021/01/14 12:59:57;;;;;;;;;;;;;;;7.59;55.01;100106.34;5039306;28;19913;-80
2021/01/14 13:02:42;;;;;;;;;;;;;;;7.69;54.41;100094.44;5037820;28;19917;-80
2021/01/14 13:05:26;;;;;;;;;;;;;;;7.85;54.17;100095.66;5041612;28;19915;-80
2021/01/14 13:08:11;;;;;;;;;;;;;;;7.93;54.00;100104.91;5036143;28;20379;-80
2021/01/14 13:10:55;;;;;;;;;;;;;;;7.99;53.38;100098.25;5032771;28;19913;-80
2021/01/14 13:13:39;;;;;;;;;;;;;;;8.07;54.07;100095.59;5008351;28;19914;-79
2021/01/14 13:16:44;;;;;;;;;;;;;;;7.72;52.85;100089.19;5020767;28;19918;-80
2021/01/14 13:19:28;;;;;;;;;;;;;;;7.73;53.09;100101.63;5043407;22;19929;-76
2021/01/14 13:22:13;;;;;;;;;;;;;;;7.90;53.29;100103.63;5043717;28;19917;-76
2021/01/14 13:24:59;;;;;;;;;;;;;;;7.98;52.84;100118.28;5028384;28;20096;-75
2021/01/14 13:27:43;;;;;;;;;;;;;;;8.18;53.47;100116.97;5053443;28;19917;-75
2021/01/14 13:30:27;;;;;;;;;;;;;;;8.28;52.88;100111.25;5053799;28;19917;-77
2021/01/14 13:33:12;;;;;;;;;;;;;;;8.28;52.90;100128.28;5052937;28;19913;-75
2021/01/14 13:35:58;;;;;;;;;;;;;;;8.48;52.27;100114.19;5049631;28;19913;-77
2021/01/14 13:38:43;;;;;;;;;;;;;;;8.61;51.87;100120.59;5033226;28;19913;-76
2021/01/14 13:41:27;;;;;;;;;;;;;;;8.74;51.72;100135.09;5032746;28;19913;-76
2021/01/14 13:44:12;;;;;;;;;;;;;;;8.83;51.15;100135.94;5032187;28;20375;-76
2021/01/14 13:46:56;;;;;;;;;;;;;;;8.91;50.86;100125.09;5015652;28;19917;-76
2021/01/14 13:49:41;;;;;;;;;;;;;;;9.05;50.47;100130.34;5041527;28;19917;-78
2021/01/14 13:52:25;;;;;;;;;;;;;;;9.14;50.11;100138.50;5033754;28;19921;-78
2021/01/14 13:55:09;;;;;;;;;;;;;;;9.22;50.27;100151.25;5034260;28;20305;-78
2021/01/14 13:57:54;;;;;;;;;;;;;;;9.17;49.35;100165.78;5033501;28;19913;-77
2021/01/14 14:00:42;;;;;;;;;;;;;;;9.16;49.28;100169.59;5034356;28;19913;-78
2021/01/14 14:03:27;;;;;;;;;;;;;;;9.36;49.45;100170.88;5036457;28;19913;-78
2021/01/14 14:06:12;;;;;;;;;;;;;;;9.39;49.16;100184.63;5034339;28;19913;-78
2021/01/14 14:08:57;;;;;;;;;;;;;;;9.45;48.79;100177.09;5034388;28;19936;-78
2021/01/14 14:11:41;;;;;;;;;;;;;;;9.41;48.86;100182.38;5034621;28;19913;-78
2021/01/14 14:14:25;;;;;;;;;;;;;;;9.63;48.93;100194.16;5033964;28;19913;-78
2021/01/14 14:17:10;;;;;;;;;;;;;;;9.68;48.33;100205.66;5033481;28;19913;-78
2021/01/14 14:19:54;;;;;;;;;;;;;;;9.80;48.24;100194.16;5034355;28;19913;-75
2021/01/14 14:22:38;;;;;;;;;;;;;;;9.77;47.66;100201.00;5032889;28;20371;-77
2021/01/14 14:25:23;;;;;;;;;;;;;;;9.67;48.26;100205.97;5018122;28;19913;-78
2021/01/14 14:28:08;;;;;;;;;;;;;;;9.79;48.29;100208.84;5056819;28;20379;-76
2021/01/14 14:30:53;;;;;;;;;;;;;;;9.82;47.63;100211.69;5033953;28;19943;-78